Accueil
METAR-TAF:

METAR-TAF

Aéroports :

Aéroport international de Pittsburgh

Pittsburgh, Pennsylvanie, États-Unis

latitude: 40-30-14N, longitude: 080-15-59W, altitude: 366 m

Observation

Le bulletin a été fait il y a 1 heure et 13 minutes, à 23:51 UTC
Vent 8 kt de sud/sud-est
Température 28°C
Humidité 51%
Pression 1018 hPa
Visibilité: 16.1 km
Nuages épars à une hauteur de 15000 ft
Nuages épars à une hauteur de 23000 ft

METAR: KPIT 252351Z 15008KT 10SM SCT150 SCT230 28/17 A3007 RMK AO2 SLP181 60000 T02780172 10300 20267 55001

Heure: 21:04 (01:04 UTC)

Prévision

Le bulletin a été fait il y a 1 heure et 12 minutes, à 23:52 UTC
Prévision valable du 26 à 00 UTC au 27 à 06 UTC
Vent 4 kt de direction variable
Visibilité: 10 km
Nuages épars à une hauteur de 5000 ft
A partir de 26 à 1600 UTC
Vent 3 kt de sud-est
Visibilité: 10 km
Nuages épars à une hauteur de 5000 ft

TAF: KPIT 252352Z 2600/2706 VRB04KT P6SM SCT050 FM261600 13003KT P6SM SCT050

Observations et prévisions météorologiques de plus de 4000 aéroports (messages METAR et TAF).

Les stations disponibles sont représentées par des disques jaunes et rouges sur la carte.

Passer la souris dessus pour voir le nom de la station.

Cliquer dessus pour voir les observations et prévisions météorologiques.

Pour changer de carte: cliquez sur les boutons verts avec une croix noire pour zoomer, sur le bouton vert avec un tiret pour effectuer un zoom arrière, ou sur les flèches vertes pour les cartes adjacentes.


METAR-TAF: